Tianjin Binhai International Airport
ZBTJ : now visible

Airfield :











YOU CAN JOIN US ON...

 
LOGIN :

Register | Disclaimer

   EN    FR    IT 

 









Legend :    VFR   Marginal VFR   IFR   Intensive IFR   Very Intensive IFR
Visi :
Ceiling :
>= 8 km
>= 3000ft
5 to 8 km
1000 to 3000 ft
1500m to 5 km
500 to 1000 ft
800 to 1500m
200 to 500 ft
< 800m
< 200 ft
Symbols :   Thunderstorms  Fog  Heavy snow  Heavy precipitations  Wind > 20 kt






- Airport Elevation : 10 ft
- IATA code : TSN


ZBTJ - Tianjin Binhai International

CURRENT METAR :
  • 161030Z 25003MPS 210V280 CAVOK 11/04 Q1027 NOSIG

EXPIRED METARs :
  • 161000Z 25004MPS 9999 FEW026 11/04 Q1027 NOSIG
  • 160930Z 24005MPS 210V270 9999 -RA FEW026 11/03 Q1027 NOSIG
  • 160900Z 24004MPS 210V280 9999 -RA NSC 12/04 Q1027 NOSIG
  • 160830Z 25005MPS 9999 -RA NSC 13/03 Q1027 NOSIG
  • 160800Z 25005MPS CAVOK 14/01 Q1027 NOSIG

TAF TAF ZBTJ
Valid from the 16 at 06:00 until the 17 at 06:00 UTC


160255Z 1606/1706 25003MPS 5000 HZ NSC TX17/1607Z TN09/1621Z



MET'MAP, your aeronautical weather chart ! - Copyright ORBIFLY December 2007 - Disclaimer

ORBIFLY MET'MAP TEAM :

Programming & Development : Alexandra Zaïnal
Concept & Development : Baudouin d'Aumeries
Co-Development & Prog : Marc-Olivier Méhu
Technical & hardware support : Manuel Goepfert

Contact : metmap@orbifly.com




SOURCES & CREDITS :

   NOAA       Earth
Advisory